Time,TemperatureF,DewpointF,PressureIn,WindDirection,WindDirectionDegrees,WindSpeedMPH,WindSpeedGustMPH,Humidity,HourlyPrecipIn,Conditions,Clouds,dailyrainin,SolarRadiationWatts/m^2,SoftwareType,DateUTC
2013-06-16 00:03:00,59.9,55.0,29.99,SE,138,0.0,-999.0,83,-99.99,,,0.00,0,weatherlink.com 1.10,2013-06-16 07:03:00,
2013-06-16 00:18:00,60.5,55.0,29.99,SE,138,0.0,-999.0,83,-99.99,,,0.00,0,weatherlink.com 1.10,2013-06-16 07:18:00,
2013-06-16 00:33:00,61.3,57.0,29.99,East,83,0.0,-999.0,84,-99.99,,,0.00,0,weatherlink.com 1.10,2013-06-16 07:33:00,
2013-06-16 00:48:00,61.6,56.0,29.99,ESE,123,0.0,-999.0,83,-99.99,,,0.00,0,weatherlink.com 1.10,2013-06-16 07:48:00,
2013-06-16 01:03:00,61.8,57.0,29.99,SE,128,0.0,-999.0,83,-99.99,,,0.00,0,weatherlink.com 1.10,2013-06-16 08:03:00,
2013-06-16 01:18:00,61.7,57.0,29.99,NE,53,0.0,-999.0,83,-99.99,,,0.00,0,weatherlink.com 1.10,2013-06-16 08:18:00,
2013-06-16 01:33:00,61.7,56.0,29.99,ENE,74,0.0,-999.0,82,-99.99,,,0.00,0,weatherlink.com 1.10,2013-06-16 08:33:00,
2013-06-16 01:48:00,61.7,56.0,29.98,ENE,75,0.0,-999.0,82,-99.99,,,0.00,0,weatherlink.com 1.10,2013-06-16 08:48:00,
2013-06-16 02:03:00,61.6,56.0,29.98,ENE,75,0.0,-999.0,81,-99.99,,,0.00,0,weatherlink.com 1.10,2013-06-16 09:03:00,
2013-06-16 02:18:00,61.5,56.0,29.99,ENE,75,0.0,-999.0,81,-99.99,,,0.00,0,weatherlink.com 1.10,2013-06-16 09:18:00,
2013-06-16 02:33:00,61.4,56.0,29.98,ENE,77,0.0,-999.0,81,-99.99,,,0.00,0,weatherlink.com 1.10,2013-06-16 09:33:00,
2013-06-16 02:48:00,61.5,56.0,29.98,ENE,77,0.0,-999.0,81,-99.99,,,0.00,0,weatherlink.com 1.10,2013-06-16 09:48:00,
2013-06-16 03:03:00,61.5,56.0,29.98,ENE,77,0.0,-999.0,81,-99.99,,,0.00,0,weatherlink.com 1.10,2013-06-16 10:03:00,
2013-06-16 03:18:00,61.1,55.0,29.98,ENE,77,0.0,-999.0,81,-99.99,,,0.00,0,weatherlink.com 1.10,2013-06-16 10:18:00,
2013-06-16 03:33:00,61.1,56.0,29.98,ENE,78,0.0,-999.0,82,-99.99,,,0.00,0,weatherlink.com 1.10,2013-06-16 10:33:00,
2013-06-16 03:48:00,60.8,55.0,29.98,ENE,76,1.0,-999.0,82,-99.99,,,0.00,0,weatherlink.com 1.10,2013-06-16 10:48:00,
2013-06-16 04:03:00,60.5,55.0,29.99,ENE,76,0.0,-999.0,82,-99.99,,,0.00,0,weatherlink.com 1.10,2013-06-16 11:03:00,
2013-06-16 04:18:00,60.0,55.0,29.99,ENE,76,0.0,-999.0,82,-99.99,,,0.00,0,weatherlink.com 1.10,2013-06-16 11:18:00,
2013-06-16 04:33:00,59.6,54.0,29.99,ENE,76,0.0,-999.0,83,-99.99,,,0.00,0,weatherlink.com 1.10,2013-06-16 11:33:00,
2013-06-16 04:48:00,59.2,54.0,29.99,East,79,0.0,-999.0,83,-99.99,,,0.00,0,weatherlink.com 1.10,2013-06-16 11:48:00,
2013-06-16 05:03:00,59.2,54.0,29.99,East,79,0.0,-999.0,83,-99.99,,,0.00,0,weatherlink.com 1.10,2013-06-16 12:03:00,
2013-06-16 05:19:00,59.3,54.0,29.99,East,79,0.0,-999.0,83,-99.99,,,0.00,0,weatherlink.com 1.10,2013-06-16 12:19:00,
2013-06-16 05:34:00,59.5,54.0,30.00,East,79,0.0,-999.0,83,-99.99,,,0.00,0,weatherlink.com 1.10,2013-06-16 12:34:00,
2013-06-16 05:49:00,59.3,54.0,30.00,East,79,0.0,-999.0,82,-99.99,,,0.00,0,weatherlink.com 1.10,2013-06-16 12:49:00,
2013-06-16 06:04:00,59.4,54.0,30.01,East,79,0.0,-999.0,82,-99.99,,,0.00,11,weatherlink.com 1.10,2013-06-16 13:04:00,
2013-06-16 06:19:00,59.6,54.0,30.01,East,79,0.0,-999.0,82,-99.99,,,0.00,19,weatherlink.com 1.10,2013-06-16 13:19:00,
2013-06-16 06:34:00,59.8,54.0,30.02,ENE,75,0.0,-999.0,81,-99.99,,,0.00,30,weatherlink.com 1.10,2013-06-16 13:34:00,
2013-06-16 06:49:00,60.1,54.0,30.02,ENE,75,0.0,-999.0,81,-99.99,,,0.00,47,weatherlink.com 1.10,2013-06-16 13:49:00,
2013-06-16 07:04:00,60.4,55.0,30.02,East,79,0.0,-999.0,81,-99.99,,,0.00,56,weatherlink.com 1.10,2013-06-16 14:04:00,
2013-06-16 07:19:00,60.8,55.0,30.02,East,93,0.0,-999.0,81,-99.99,,,0.00,81,weatherlink.com 1.10,2013-06-16 14:19:00,
2013-06-16 07:34:00,61.3,55.0,30.03,East,83,0.0,-999.0,81,-99.99,,,0.00,97,weatherlink.com 1.10,2013-06-16 14:34:00,
2013-06-16 07:49:00,61.4,55.0,30.04,East,86,0.0,-999.0,80,-99.99,,,0.00,128,weatherlink.com 1.10,2013-06-16 14:49:00,
2013-06-16 08:04:00,62.1,56.0,30.04,East,86,0.0,-999.0,80,-99.99,,,0.00,209,weatherlink.com 1.10,2013-06-16 15:04:00,
2013-06-16 08:19:00,62.6,56.0,30.05,SW,236,3.0,-999.0,78,-99.99,,,0.00,338,weatherlink.com 1.10,2013-06-16 15:19:00,
2013-06-16 08:34:00,64.0,57.0,30.05,WNW,302,0.0,-999.0,77,-99.99,,,0.00,610,weatherlink.com 1.10,2013-06-16 15:34:00,
2013-06-16 08:49:00,65.8,57.0,30.05,NW,317,0.0,-999.0,72,-99.99,,,0.00,471,weatherlink.com 1.10,2013-06-16 15:49:00,
2013-06-16 09:04:00,67.2,57.0,30.04,South,173,0.0,-999.0,69,-99.99,,,0.00,587,weatherlink.com 1.10,2013-06-16 16:04:00,
2013-06-16 09:19:00,68.2,57.0,30.04,West,280,0.0,-999.0,67,-99.99,,,0.00,633,weatherlink.com 1.10,2013-06-16 16:19:00,
2013-06-16 09:34:00,69.3,57.0,30.04,WNW,287,0.0,-999.0,65,-99.99,,,0.00,677,weatherlink.com 1.10,2013-06-16 16:34:00,
2013-06-16 09:49:00,70.6,57.0,30.04,North,359,0.0,-999.0,62,-99.99,,,0.00,721,weatherlink.com 1.10,2013-06-16 16:49:00,
2013-06-16 10:05:00,71.1,56.0,30.03,SE,146,0.0,-999.0,60,-99.99,,,0.00,754,weatherlink.com 1.10,2013-06-16 17:05:00,
2013-06-16 10:20:00,72.3,57.0,30.02,WSW,256,0.0,-999.0,58,-99.99,,,0.00,788,weatherlink.com 1.10,2013-06-16 17:20:00,
2013-06-16 10:35:00,74.1,57.0,30.02,North,356,0.0,-999.0,56,-99.99,,,0.00,819,weatherlink.com 1.10,2013-06-16 17:35:00,
2013-06-16 10:50:00,75.8,57.0,30.02,North,11,0.0,-999.0,53,-99.99,,,0.00,847,weatherlink.com 1.10,2013-06-16 17:50:00,
2013-06-16 11:05:00,76.5,57.0,30.02,SE,133,0.0,-999.0,52,-99.99,,,0.00,874,weatherlink.com 1.10,2013-06-16 18:05:00,
2013-06-16 11:20:00,75.5,58.0,30.02,SW,224,4.0,-999.0,54,-99.99,,,0.00,891,weatherlink.com 1.10,2013-06-16 18:20:00,
2013-06-16 11:35:00,75.1,58.0,30.01,West,264,6.0,-999.0,55,-99.99,,,0.00,907,weatherlink.com 1.10,2013-06-16 18:35:00,
2013-06-16 11:50:00,76.0,58.0,30.01,WSW,244,0.0,-999.0,54,-99.99,,,0.00,923,weatherlink.com 1.10,2013-06-16 18:50:00,
2013-06-16 12:05:00,76.4,58.0,30.01,WNW,285,1.0,-999.0,53,-99.99,,,0.00,933,weatherlink.com 1.10,2013-06-16 19:05:00,
2013-06-16 12:20:00,77.6,58.0,30.00,West,269,2.0,-999.0,52,-99.99,,,0.00,937,weatherlink.com 1.10,2013-06-16 19:20:00,
2013-06-16 12:35:00,77.3,58.0,30.00,WSW,258,9.0,-999.0,52,-99.99,,,0.00,944,weatherlink.com 1.10,2013-06-16 19:35:00,
2013-06-16 12:50:00,78.0,59.0,30.00,WNW,301,0.0,-999.0,52,-99.99,,,0.00,946,weatherlink.com 1.10,2013-06-16 19:50:00,
2013-06-16 13:05:00,78.9,59.0,30.00,SSW,205,2.0,-999.0,50,-99.99,,,0.00,944,weatherlink.com 1.10,2013-06-16 20:05:00,
2013-06-16 13:20:00,78.1,58.0,29.99,NW,304,1.0,-999.0,51,-99.99,,,0.00,935,weatherlink.com 1.10,2013-06-16 20:20:00,
2013-06-16 13:35:00,78.2,59.0,29.99,WNW,303,2.0,-999.0,51,-99.99,,,0.00,926,weatherlink.com 1.10,2013-06-16 20:35:00,
2013-06-16 13:50:00,78.7,59.0,29.99,West,278,6.0,-999.0,51,-99.99,,,0.00,916,weatherlink.com 1.10,2013-06-16 20:50:00,
2013-06-16 14:05:00,78.7,59.0,29.99,WSW,243,4.0,-999.0,51,-99.99,,,0.00,896,weatherlink.com 1.10,2013-06-16 21:05:00,
2013-06-16 14:20:00,79.0,59.0,29.99,NW,311,1.0,-999.0,51,-99.99,,,0.00,877,weatherlink.com 1.10,2013-06-16 21:20:00,
2013-06-16 14:35:00,79.4,59.0,29.99,West,266,4.0,-999.0,50,-99.99,,,0.00,856,weatherlink.com 1.10,2013-06-16 21:35:00,
2013-06-16 14:50:00,78.6,59.0,29.98,WNW,287,4.0,-999.0,51,-99.99,,,0.00,826,weatherlink.com 1.10,2013-06-16 21:50:00,
2013-06-16 15:05:00,78.6,59.0,29.98,NW,313,0.0,-999.0,51,-99.99,,,0.00,800,weatherlink.com 1.10,2013-06-16 22:05:00,
2013-06-16 15:20:00,79.3,59.0,29.98,WSW,252,4.0,-999.0,50,-99.99,,,0.00,768,weatherlink.com 1.10,2013-06-16 22:20:00,
2013-06-16 15:35:00,78.2,59.0,29.98,NW,311,2.0,-999.0,52,-99.99,,,0.00,731,weatherlink.com 1.10,2013-06-16 22:35:00,
2013-06-16 15:50:00,78.7,59.0,29.98,WNW,286,4.0,-999.0,51,-99.99,,,0.00,691,weatherlink.com 1.10,2013-06-16 22:50:00,
2013-06-16 16:05:00,78.7,59.0,29.98,WNW,302,3.0,-999.0,51,-99.99,,,0.00,649,weatherlink.com 1.10,2013-06-16 23:05:00,
2013-06-16 16:20:00,79.1,59.0,29.97,NW,326,2.0,-999.0,51,-99.99,,,0.00,610,weatherlink.com 1.10,2013-06-16 23:20:00,
2013-06-16 16:35:00,79.3,60.0,29.97,West,281,0.0,-999.0,51,-99.99,,,0.00,568,weatherlink.com 1.10,2013-06-16 23:35:00,
2013-06-16 16:50:00,79.0,59.0,29.96,SW,236,0.0,-999.0,51,-99.99,,,0.00,520,weatherlink.com 1.10,2013-06-16 23:50:00,
2013-06-16 17:05:00,78.3,59.0,29.95,WNW,291,0.0,-999.0,52,-99.99,,,0.00,473,weatherlink.com 1.10,2013-06-17 00:05:00,
2013-06-16 17:20:00,79.0,59.0,29.96,WSW,242,1.0,-999.0,51,-99.99,,,0.00,425,weatherlink.com 1.10,2013-06-17 00:20:00,
2013-06-16 17:35:00,78.2,59.0,29.95,WSW,243,0.0,-999.0,52,-99.99,,,0.00,378,weatherlink.com 1.10,2013-06-17 00:35:00,
2013-06-16 17:50:00,77.4,59.0,29.95,WSW,243,0.0,-999.0,53,-99.99,,,0.00,330,weatherlink.com 1.10,2013-06-17 00:50:00,
2013-06-16 18:05:00,76.9,59.0,29.95,WSW,258,0.0,-999.0,55,-99.99,,,0.00,283,weatherlink.com 1.10,2013-06-17 01:05:00,
2013-06-16 18:20:00,76.7,59.0,29.95,SW,233,0.0,-999.0,55,-99.99,,,0.00,125,weatherlink.com 1.10,2013-06-17 01:20:00,
2013-06-16 18:35:00,76.1,59.0,29.95,SW,219,2.0,-999.0,56,-99.99,,,0.00,79,weatherlink.com 1.10,2013-06-17 01:35:00,
2013-06-16 18:50:00,75.1,60.0,29.96,SSE,164,0.0,-999.0,59,-99.99,,,0.00,72,weatherlink.com 1.10,2013-06-17 01:50:00,
2013-06-16 19:05:00,74.1,60.0,29.96,SSW,194,2.0,-999.0,61,-99.99,,,0.00,25,weatherlink.com 1.10,2013-06-17 02:05:00,
2013-06-16 19:20:00,72.8,60.0,29.96,ESE,105,0.0,-999.0,64,-99.99,,,0.00,21,weatherlink.com 1.10,2013-06-17 02:20:00,
2013-06-16 19:36:00,71.3,59.0,29.97,South,175,3.0,-999.0,66,-99.99,,,0.00,16,weatherlink.com 1.10,2013-06-17 02:36:00,
2013-06-16 19:51:00,70.0,59.0,29.97,South,174,0.0,-999.0,69,-99.99,,,0.00,9,weatherlink.com 1.10,2013-06-17 02:51:00,
2013-06-16 20:06:00,68.8,59.0,29.97,SE,138,0.0,-999.0,71,-99.99,,,0.00,0,weatherlink.com 1.10,2013-06-17 03:06:00,
2013-06-16 20:21:00,67.9,59.0,29.97,SE,144,0.0,-999.0,72,-99.99,,,0.00,0,weatherlink.com 1.10,2013-06-17 03:21:00,
2013-06-16 20:36:00,66.8,58.0,29.97,SSE,153,0.0,-999.0,74,-99.99,,,0.00,0,weatherlink.com 1.10,2013-06-17 03:36:00,
2013-06-16 20:51:00,66.1,58.0,29.97,South,171,0.0,-999.0,76,-99.99,,,0.00,0,weatherlink.com 1.10,2013-06-17 03:51:00,
2013-06-16 21:06:00,65.2,58.0,29.97,SE,141,0.0,-999.0,78,-99.99,,,0.00,0,weatherlink.com 1.10,2013-06-17 04:06:00,
2013-06-16 21:21:00,64.5,58.0,29.97,SE,137,0.0,-999.0,79,-99.99,,,0.00,0,weatherlink.com 1.10,2013-06-17 04:21:00,
2013-06-16 21:36:00,64.0,58.0,29.98,SE,137,0.0,-999.0,80,-99.99,,,0.00,0,weatherlink.com 1.10,2013-06-17 04:36:00,
2013-06-16 21:51:00,63.6,58.0,29.98,SE,137,0.0,-999.0,82,-99.99,,,0.00,0,weatherlink.com 1.10,2013-06-17 04:51:00,
2013-06-16 22:06:00,63.4,58.0,29.98,ESE,121,2.0,-999.0,83,-99.99,,,0.00,0,weatherlink.com 1.10,2013-06-17 05:06:00,
2013-06-16 22:21:00,63.0,58.0,29.99,SSE,160,0.0,-999.0,83,-99.99,,,0.00,0,weatherlink.com 1.10,2013-06-17 05:21:00,
2013-06-16 22:36:00,62.7,58.0,29.98,SE,136,2.0,-999.0,84,-99.99,,,0.00,0,weatherlink.com 1.10,2013-06-17 05:36:00,
2013-06-16 22:51:00,62.2,57.0,29.98,SE,136,0.0,-999.0,84,-99.99,,,0.00,0,weatherlink.com 1.10,2013-06-17 05:51:00,
2013-06-16 23:06:00,61.9,57.0,29.98,SE,136,0.0,-999.0,85,-99.99,,,0.00,0,weatherlink.com 1.10,2013-06-17 06:06:00,
2013-06-16 23:21:00,61.5,57.0,29.98,SE,136,0.0,-999.0,85,-99.99,,,0.00,0,weatherlink.com 1.10,2013-06-17 06:21:00,
2013-06-16 23:36:00,60.9,57.0,29.98,SE,136,0.0,-999.0,86,-99.99,,,0.00,0,weatherlink.com 1.10,2013-06-17 06:36:00,
2013-06-16 23:51:00,60.2,56.0,29.98,SE,136,0.0,-999.0,85,-99.99,,,0.00,0,weatherlink.com 1.10,2013-06-17 06:51:00,